Time;durP1;ratioP1;P1;durP2;ratioP2;P2;SDS_P1;SDS_P2;PMS_P1;PMS_P2;Temp;Humidity;BMP_temperature;BMP_pressure;BME280_temperature;BME280_humidity;BME280_pressure;Samples;Min_cycle;Max_cycle;Signal;HPM_P1;HPM_P2
2021/04/22 00:01:15;;;;;;;19.50;11.20;;;10.60;80.60;;;;;;4320127;33;20545;-72
2021/04/22 00:03:42;;;;;;;19.07;11.27;;;10.60;80.30;;;;;;4328961;33;20149;-72
2021/04/22 00:06:08;;;;;;;19.33;11.30;;;10.70;81.40;;;;;;4336064;33;20171;-72
2021/04/22 00:08:35;;;;;;;20.00;11.30;;;10.70;80.30;;;;;;4334010;33;20144;-72
2021/04/22 00:11:01;;;;;;;17.90;11.47;;;10.60;80.30;;;;;;4336039;33;20196;-72
2021/04/22 00:13:29;;;;;;;20.13;11.30;;;10.50;81.50;;;;;;4334758;33;20450;-72
2021/04/22 00:16:00;;;;;;;18.37;10.93;;;10.60;82.40;;;;;;4334909;33;20165;-72
2021/04/22 00:18:26;;;;;;;19.30;11.47;;;10.60;82.10;;;;;;4325381;33;20165;-72
2021/04/22 00:20:53;;;;;;;17.73;11.20;;;10.70;81.70;;;;;;4319962;33;20192;-72
2021/04/22 00:23:19;;;;;;;20.30;10.87;;;10.70;81.40;;;;;;4320005;33;20153;-72
2021/04/22 00:25:46;;;;;;;19.10;11.80;;;10.70;81.10;;;;;;4321333;33;20176;-72
2021/04/22 00:28:14;;;;;;;19.00;11.40;;;10.60;81.30;;;;;;4319969;33;20149;-71
2021/04/22 00:30:42;;;;;;;20.33;11.80;;;10.60;81.50;;;;;;4319868;33;20249;-72
2021/04/22 00:33:12;;;;;;;20.83;11.50;;;10.60;81.80;;;;;;4319803;33;20142;-72
2021/04/22 00:35:39;;;;;;;20.27;11.27;;;10.70;81.10;;;;;;4321258;33;20453;-72
2021/04/22 00:38:07;;;;;;;19.10;11.70;;;10.80;80.90;;;;;;4319237;33;20179;-72
2021/04/22 00:40:35;;;;;;;18.97;11.27;;;10.80;80.60;;;;;;4321315;33;20496;-72
2021/04/22 00:43:04;;;;;;;19.10;11.57;;;10.60;81.10;;;;;;4319741;33;20511;-71
2021/04/22 00:45:32;;;;;;;23.10;12.93;;;10.70;81.20;;;;;;4321201;33;20354;-72
2021/04/22 00:47:58;;;;;;;23.57;12.33;;;10.70;81.50;;;;;;4319750;33;20163;-72
2021/04/22 00:50:30;;;;;;;24.10;12.90;;;10.60;81.90;;;;;;4319272;33;20175;-72
2021/04/22 00:52:59;;;;;;;25.17;13.20;;;10.60;82.10;;;;;;4319719;33;20146;-72
2021/04/22 00:55:26;;;;;;;22.87;13.10;;;10.60;82.70;;;;;;4318506;33;20165;-72
2021/04/22 00:57:53;;;;;;;24.10;13.83;;;10.60;83.00;;;;;;4319643;33;20205;-72
2021/04/22 01:00:23;;;;;;;20.53;13.03;;;10.60;83.70;;;;;;4319757;33;20141;-72
2021/04/22 01:02:50;;;;;;;26.60;13.53;;;10.50;84.40;;;;;;4319776;33;20420;-72
2021/04/22 01:05:25;;;;;;;23.07;13.53;;;10.50;85.00;;;;;;4319608;33;20153;-73
2021/04/22 01:07:52;;;;;;;21.37;12.90;;;10.40;85.90;;;;;;4319715;33;20196;-73
2021/04/22 01:10:20;;;;;;;23.03;13.60;;;10.30;87.10;;;;;;4319740;33;20144;-72
2021/04/22 01:12:46;;;;;;;24.97;13.47;;;10.30;88.10;;;;;;4319600;33;20158;-72
2021/04/22 01:15:17;;;;;;;26.17;13.83;;;10.30;88.70;;;;;;4319592;33;20197;-72
2021/04/22 01:17:44;;;;;;;26.37;13.50;;;10.40;89.00;;;;;;4319521;33;20183;-71
2021/04/22 01:20:23;;;;;;;21.33;12.77;;;10.30;89.80;;;;;;4319634;33;20157;-72
2021/04/22 01:22:51;;;;;;;20.87;12.63;;;10.50;90.00;;;;;;4320351;33;20145;-72
2021/04/22 01:25:49;;;;;;;20.33;12.20;;;10.50;89.90;;;;;;4320383;33;20590;-72
2021/04/22 01:28:18;;;;;;;24.40;13.30;;;10.60;90.10;;;;;;4288785;33;20237;-72
2021/04/22 01:30:46;;;;;;;19.90;12.70;;;10.50;90.10;;;;;;4288700;33;20290;-73
2021/04/22 01:33:14;;;;;;;20.53;12.67;;;10.50;90.30;;;;;;4289081;33;20174;-73
2021/04/22 01:35:44;;;;;;;22.00;12.33;;;10.50;90.30;;;;;;4288465;33;20189;-72
2021/04/22 01:38:12;;;;;;;20.03;12.10;;;10.60;90.40;;;;;;4288148;33;20153;-72
2021/04/22 01:40:39;;;;;;;17.30;9.83;;;10.60;90.40;;;;;;4288220;33;20184;-72
2021/04/22 01:43:06;;;;;;;13.30;8.83;;;10.60;90.30;;;;;;4288271;33;20177;-73
2021/04/22 01:45:34;;;;;;;15.40;8.77;;;10.50;88.90;;;;;;4288294;33;20411;-72
2021/04/22 01:48:00;;;;;;;14.53;8.03;;;10.50;88.50;;;;;;4289721;33;20224;-72
2021/04/22 01:50:30;;;;;;;14.53;8.77;;;10.50;87.60;;;;;;4288403;33;20179;-72
2021/04/22 01:52:56;;;;;;;12.97;8.07;;;10.40;87.50;;;;;;4290351;33;20158;-72
2021/04/22 01:55:32;;;;;;;13.37;8.20;;;10.30;87.80;;;;;;4291616;33;20452;-72
2021/04/22 01:57:59;;;;;;;13.00;8.37;;;10.20;88.50;;;;;;4291955;33;20221;-72
2021/04/22 02:00:35;;;;;;;14.13;8.60;;;10.20;88.40;;;;;;4292228;33;20173;-72
2021/04/22 02:03:03;;;;;;;14.77;8.27;;;10.20;89.00;;;;;;4291707;33;20166;-72
2021/04/22 02:05:29;;;;;;;15.07;8.47;;;10.10;88.30;;;;;;4309235;33;20173;-73
2021/04/22 02:07:56;;;;;;;12.20;7.47;;;10.10;88.60;;;;;;4322756;33;20145;-72
2021/04/22 02:10:22;;;;;;;12.57;7.80;;;10.00;89.30;;;;;;4321966;33;20149;-72
2021/04/22 02:12:50;;;;;;;13.70;7.67;;;9.90;89.10;;;;;;4321819;33;20189;-72
2021/04/22 02:15:20;;;;;;;17.63;8.47;;;9.90;89.10;;;;;;4321692;33;20141;-72
2021/04/22 02:17:48;;;;;;;14.10;7.63;;;9.80;89.90;;;;;;4321644;33;20184;-72
2021/04/22 02:20:20;;;;;;;13.27;7.57;;;9.80;89.90;;;;;;4322174;33;20171;-72
2021/04/22 02:22:52;;;;;;;12.77;8.10;;;9.70;90.10;;;;;;4321723;33;20151;-73
2021/04/22 02:25:21;;;;;;;14.03;7.93;;;9.70;90.10;;;;;;4321119;33;20228;-72
2021/04/22 02:27:47;;;;;;;16.07;8.17;;;9.70;90.20;;;;;;4322937;33;20195;-71
2021/04/22 02:30:24;;;;;;;14.67;8.23;;;9.70;90.20;;;;;;4320470;33;20161;-72
2021/04/22 02:32:52;;;;;;;14.40;8.83;;;9.70;90.70;;;;;;4321783;33;20146;-72
2021/04/22 02:35:22;;;;;;;15.77;8.80;;;9.60;91.20;;;;;;4322169;33;20199;-73
2021/04/22 02:37:49;;;;;;;13.90;8.70;;;9.50;91.50;;;;;;4322608;33;20207;-72
2021/04/22 02:40:19;;;;;;;15.73;9.17;;;9.40;92.00;;;;;;4321345;33;20149;-72
2021/04/22 02:42:46;;;;;;;14.67;8.60;;;9.30;92.50;;;;;;4322959;33;20141;-72
2021/04/22 02:45:16;;;;;;;14.87;8.97;;;9.30;92.80;;;;;;4321303;33;20165;-72
2021/04/22 02:47:43;;;;;;;16.03;9.13;;;9.30;92.90;;;;;;4322803;33;20141;-72
2021/04/22 02:50:13;;;;;;;16.20;9.13;;;9.20;93.20;;;;;;4321683;33;20145;-72
2021/04/22 02:52:39;;;;;;;15.23;9.03;;;9.10;93.40;;;;;;4321296;33;20428;-71
2021/04/22 02:55:07;;;;;;;15.83;8.60;;;9.10;93.30;;;;;;4322035;33;20165;-71
2021/04/22 02:57:33;;;;;;;15.10;8.13;;;9.00;93.20;;;;;;4321584;33;20176;-71
2021/04/22 03:00:01;;;;;;;12.57;8.13;;;8.90;93.40;;;;;;4321236;33;20145;-72
2021/04/22 03:02:27;;;;;;;14.43;7.57;;;8.80;93.50;;;;;;4320573;33;20154;-72
2021/04/22 03:04:54;;;;;;;13.93;8.23;;;8.80;93.80;;;;;;4320340;33;20149;-73
2021/04/22 03:07:20;;;;;;;14.60;8.67;;;8.70;93.80;;;;;;4321038;33;20195;-72
2021/04/22 03:09:46;;;;;;;13.37;8.30;;;8.60;94.60;;;;;;4320903;33;20141;-73
2021/04/22 03:12:13;;;;;;;17.53;8.80;;;8.60;95.20;;;;;;4322089;33;20172;-73
2021/04/22 03:14:39;;;;;;;14.33;8.07;;;8.60;95.60;;;;;;4320998;33;20146;-73
2021/04/22 03:17:06;;;;;;;13.87;8.50;;;8.70;96.10;;;;;;4320773;33;20148;-72
2021/04/22 03:19:32;;;;;;;14.37;8.90;;;8.80;96.30;;;;;;4320843;33;20391;-72
2021/04/22 03:21:59;;;;;;;13.83;8.90;;;8.80;96.40;;;;;;4320845;33;20450;-72
2021/04/22 03:24:26;;;;;;;15.20;8.83;;;8.80;96.80;;;;;;4320767;33;20157;-73
2021/04/22 03:26:52;;;;;;;14.67;8.83;;;8.80;97.10;;;;;;4320731;33;20166;-73
2021/04/22 03:29:19;;;;;;;15.77;9.27;;;8.80;97.60;;;;;;4320793;33;20225;-73
2021/04/22 03:31:45;;;;;;;15.47;9.10;;;8.60;98.20;;;;;;4320666;33;20150;-73
2021/04/22 03:34:12;;;;;;;16.30;9.40;;;8.50;99.30;;;;;;4320676;33;20176;-73
2021/04/22 03:36:38;;;;;;;15.43;8.67;;;8.50;99.90;;;;;;4320617;33;20585;-73
2021/04/22 03:39:06;;;;;;;16.77;8.50;;;8.40;99.80;;;;;;4321948;33;20212;-73
2021/04/22 03:41:32;;;;;;;13.90;8.00;;;8.40;99.50;;;;;;4320609;33;20176;-73
2021/04/22 03:44:02;;;;;;;14.47;7.23;;;8.40;99.40;;;;;;4320480;33;20169;-72
2021/04/22 03:46:29;;;;;;;14.97;7.37;;;8.30;98.90;;;;;;4321781;33;20539;-72
2021/04/22 03:48:55;;;;;;;14.00;7.20;;;8.30;97.90;;;;;;4320461;33;20167;-72
2021/04/22 03:51:21;;;;;;;12.17;6.33;;;8.30;98.10;;;;;;4321301;33;20141;-73
2021/04/22 03:53:48;;;;;;;10.77;5.80;;;8.30;96.20;;;;;;4320554;33;20224;-72
2021/04/22 03:56:14;;;;;;;11.10;6.00;;;8.20;96.40;;;;;;4319990;33;20244;-72
2021/04/22 03:58:41;;;;;;;9.37;5.73;;;8.30;96.50;;;;;;4319671;33;20183;-71
2021/04/22 04:01:08;;;;;;;9.67;5.30;;;8.20;96.20;;;;;;4319657;33;20177;-72
2021/04/22 04:03:34;;;;;;;8.37;5.20;;;8.30;95.60;;;;;;4321574;33;20198;-73
2021/04/22 04:06:01;;;;;;;11.33;4.93;;;8.20;95.00;;;;;;4320275;33;20160;-72
2021/04/22 04:08:27;;;;;;;8.40;5.17;;;8.20;94.30;;;;;;4320138;33;20156;-73
2021/04/22 04:10:54;;;;;;;8.93;5.03;;;8.10;94.60;;;;;;4321493;33;20193;-72
2021/04/22 04:13:20;;;;;;;10.23;4.53;;;8.10;94.50;;;;;;4320172;33;20161;-74
2021/04/22 04:15:48;;;;;;;7.80;4.47;;;8.20;94.60;;;;;;4319799;33;20498;-73
2021/04/22 04:18:18;;;;;;;12.33;4.70;;;8.30;94.80;;;;;;4321402;33;20216;-73
2021/04/22 04:20:46;;;;;;;9.17;4.77;;;8.10;94.60;;;;;;4321498;33;20481;-73
2021/04/22 04:23:13;;;;;;;13.33;4.63;;;8.10;95.10;;;;;;4320010;33;20172;-73
2021/04/22 04:25:39;;;;;;;10.43;5.03;;;8.10;95.70;;;;;;4319447;33;20458;-76
2021/04/22 04:28:06;;;;;;;8.00;4.70;;;8.10;98.30;;;;;;4321208;33;20153;-69
2021/04/22 04:30:33;;;;;;;9.77;5.10;;;7.80;99.90;;;;;;4319848;33;20157;-71
2021/04/22 04:32:59;;;;;;;12.40;5.47;;;7.50;99.90;;;;;;4320384;33;20453;-70
2021/04/22 04:35:26;;;;;;;9.40;5.10;;;7.40;99.90;;;;;;4319395;33;20369;-70
2021/04/22 04:37:53;;;;;;;10.70;5.57;;;7.30;99.90;;;;;;4320192;33;20181;-70
2021/04/22 04:40:20;;;;;;;11.17;5.27;;;7.30;99.90;;;;;;4321256;33;20164;-71
2021/04/22 04:42:46;;;;;;;14.93;5.43;;;7.30;99.90;;;;;;4319847;33;20155;-70
2021/04/22 04:45:16;;;;;;;8.60;4.90;;;7.10;99.90;;;;;;4321232;33;20157;-70
2021/04/22 04:47:43;;;;;;;8.57;5.70;;;7.10;99.90;;;;;;4319914;33;20194;-70
2021/04/22 04:50:11;;;;;;;10.47;6.03;;;7.20;99.90;;;;;;4320483;33;20200;-70
2021/04/22 04:52:37;;;;;;;11.77;6.03;;;7.20;99.90;;;;;;4319601;33;20393;-69
2021/04/22 04:55:05;;;;;;;11.47;6.00;;;7.10;99.90;;;;;;4319504;33;20161;-69
2021/04/22 04:57:32;;;;;;;10.57;6.10;;;7.00;99.90;;;;;;4321143;33;20400;-70
2021/04/22 04:59:58;;;;;;;9.90;6.20;;;6.80;99.90;;;;;;4321098;33;20172;-70
2021/04/22 05:02:25;;;;;;;11.37;6.00;;;6.60;99.90;;;;;;4321535;33;20174;-69
2021/04/22 05:04:51;;;;;;;10.23;5.50;;;6.50;99.90;;;;;;4310702;33;20167;-70
2021/04/22 05:07:18;;;;;;;10.37;5.43;;;6.30;99.90;;;;;;4334942;33;20430;-71
2021/04/22 05:09:44;;;;;;;9.00;5.03;;;6.30;99.90;;;;;;4334287;33;20165;-70
2021/04/22 05:12:11;;;;;;;9.70;4.80;;;6.30;99.90;;;;;;4334352;33;20175;-71
2021/04/22 05:14:37;;;;;;;9.63;4.70;;;6.10;99.90;;;;;;4334237;33;20148;-71
2021/04/22 05:17:04;;;;;;;9.40;4.50;;;5.90;99.90;;;;;;4334165;33;20152;-72
2021/04/22 05:19:35;;;;;;;8.70;4.43;;;5.60;99.90;;;;;;4335678;33;20179;-72
2021/04/22 05:22:01;;;;;;;9.97;3.80;;;5.30;99.90;;;;;;4333642;33;20489;-72
2021/04/22 05:24:28;;;;;;;8.67;3.60;;;5.20;99.90;;;;;;4335634;33;20603;-73
2021/04/22 05:26:54;;;;;;;8.70;3.80;;;5.10;99.90;;;;;;4334177;33;20192;-71
2021/04/22 05:29:21;;;;;;;8.90;4.10;;;5.10;99.90;;;;;;4337817;33;20196;-70
2021/04/22 05:31:47;;;;;;;10.30;4.40;;;5.10;99.90;;;;;;4336961;33;20201;-72
2021/04/22 05:34:14;;;;;;;7.50;3.60;;;5.10;99.90;;;;;;4336762;33;20158;-71
2021/04/22 05:36:40;;;;;;;7.50;3.10;;;5.20;99.90;;;;;;4336932;33;20148;-71
2021/04/22 05:39:07;;;;;;;8.40;3.77;;;5.30;99.90;;;;;;4338252;33;20162;-71
2021/04/22 05:41:33;;;;;;;8.47;3.27;;;5.30;99.90;;;;;;4337157;33;20192;-72
2021/04/22 05:44:00;;;;;;;6.80;3.77;;;5.50;99.90;;;;;;4338118;33;20146;-71
2021/04/22 05:46:28;;;;;;;8.80;3.87;;;5.60;99.90;;;;;;4336543;33;20198;-71
2021/04/22 05:48:55;;;;;;;8.30;4.10;;;5.70;99.90;;;;;;4336719;33;20149;-71
2021/04/22 05:51:22;;;;;;;7.60;3.60;;;5.70;99.90;;;;;;4338117;33;20173;-72
2021/04/22 05:53:48;;;;;;;8.07;3.80;;;5.80;99.90;;;;;;4336633;33;20231;-71
2021/04/22 05:56:15;;;;;;;9.80;4.67;;;5.80;99.90;;;;;;4336279;33;20158;-72
2021/04/22 05:58:41;;;;;;;9.97;4.00;;;5.70;99.90;;;;;;4336476;33;20159;-71
2021/04/22 06:01:09;;;;;;;8.20;4.07;;;5.70;99.90;;;;;;4336754;33;20174;-73
2021/04/22 06:03:35;;;;;;;7.50;3.10;;;5.80;99.90;;;;;;4337675;33;20219;-71
2021/04/22 06:06:01;;;;;;;9.73;3.57;;;5.80;99.90;;;;;;4337588;33;20203;-71
2021/04/22 06:08:28;;;;;;;8.63;3.60;;;5.90;99.90;;;;;;4337467;33;20180;-70
2021/04/22 06:10:54;;;;;;;7.40;3.40;;;5.90;99.90;;;;;;4337473;33;20160;-71
2021/04/22 06:13:21;;;;;;;8.23;3.20;;;5.90;99.90;;;;;;4337484;33;20185;-71
2021/04/22 06:15:47;;;;;;;7.30;3.70;;;5.80;99.90;;;;;;4336062;33;20164;-70
2021/04/22 06:18:14;;;;;;;9.13;3.60;;;5.80;99.90;;;;;;4335385;33;20147;-70
2021/04/22 06:20:41;;;;;;;9.60;3.80;;;5.90;99.90;;;;;;4332354;33;20210;-69
2021/04/22 06:23:22;;;;;;;8.07;3.70;;;5.90;99.90;;;;;;4306842;33;20228;-69
2021/04/22 06:25:48;;;;;;;7.23;3.77;;;6.00;99.90;;;;;;4307959;33;20225;-69
2021/04/22 06:28:15;;;;;;;8.27;3.80;;;6.00;99.90;;;;;;4306519;33;20143;-70
2021/04/22 06:30:41;;;;;;;9.93;4.50;;;6.00;99.90;;;;;;4307699;33;20165;-69
2021/04/22 06:33:08;;;;;;;9.43;4.43;;;6.10;99.90;;;;;;4307804;33;20190;-69
2021/04/22 06:35:39;;;;;;;8.07;3.97;;;6.10;99.90;;;;;;4307419;33;20235;-69
2021/04/22 06:38:06;;;;;;;9.23;4.37;;;6.20;99.90;;;;;;4306335;33;20162;-69
2021/04/22 06:40:32;;;;;;;11.23;4.33;;;6.10;99.90;;;;;;4305910;33;20245;-69
2021/04/22 06:43:03;;;;;;;9.70;4.27;;;6.30;99.90;;;;;;4307779;33;20166;-69
2021/04/22 06:45:29;;;;;;;8.63;4.20;;;6.30;99.90;;;;;;4307498;33;20145;-70
2021/04/22 06:47:56;;;;;;;9.40;4.27;;;6.40;99.90;;;;;;4307328;33;20150;-70
2021/04/22 06:50:23;;;;;;;8.00;4.17;;;6.50;99.90;;;;;;4307257;33;20206;-69
2021/04/22 06:52:51;;;;;;;9.60;4.07;;;6.70;99.90;;;;;;4307430;33;20429;-69
2021/04/22 06:55:21;;;;;;;9.40;4.07;;;6.90;99.90;;;;;;4305946;33;20175;-69
2021/04/22 06:57:59;;;;;;;11.73;4.00;;;6.90;99.90;;;;;;4307654;33;20157;-69
2021/04/22 07:00:30;;;;;;;9.23;4.27;;;6.90;99.90;;;;;;4318185;33;20157;-69
2021/04/22 07:02:57;;;;;;;7.60;3.60;;;7.00;99.90;;;;;;4305735;33;20468;-67
2021/04/22 07:05:23;;;;;;;8.53;4.10;;;7.30;99.90;;;;;;4306448;33;20383;-69
2021/04/22 07:07:50;;;;;;;10.13;4.10;;;7.20;99.90;;;;;;4307980;33;20398;-70
2021/04/22 07:10:17;;;;;;;8.40;3.50;;;7.40;99.90;;;;;;4307496;33;20167;-68
2021/04/22 07:12:44;;;;;;;10.23;3.50;;;7.70;99.90;;;;;;4307428;33;20149;-69
2021/04/22 07:15:11;;;;;;;9.70;3.33;;;7.70;99.90;;;;;;4307400;33;20156;-69
2021/04/22 07:17:38;;;;;;;7.53;3.00;;;7.80;99.90;;;;;;4307647;33;20146;-68
2021/04/22 07:20:11;;;;;;;9.13;2.90;;;7.90;99.90;;;;;;4305787;33;20168;-69
2021/04/22 07:22:51;;;;;;;10.20;2.33;;;7.70;99.20;;;;;;4307951;33;20196;-68
2021/04/22 07:25:17;;;;;;;10.73;2.80;;;7.60;98.90;;;;;;4307014;33;20145;-69
2021/04/22 07:27:44;;;;;;;8.23;2.37;;;7.70;96.90;;;;;;4305684;33;20149;-69
2021/04/22 07:30:11;;;;;;;10.83;2.27;;;7.50;94.80;;;;;;4307432;33;20410;-70
2021/04/22 07:32:39;;;;;;;6.43;2.60;;;7.50;93.90;;;;;;4307567;33;20226;-69
2021/04/22 07:35:08;;;;;;;5.03;1.90;;;7.40;91.80;;;;;;4307529;33;20472;-70
2021/04/22 07:37:34;;;;;;;9.90;2.10;;;7.50;91.20;;;;;;4307405;33;20217;-69
2021/04/22 07:40:01;;;;;;;9.10;1.87;;;7.50;88.80;;;;;;4307140;33;20141;-69
2021/04/22 07:42:27;;;;;;;6.67;2.40;;;7.50;87.80;;;;;;4307413;33;20178;-69
2021/04/22 07:44:54;;;;;;;8.90;2.20;;;7.50;86.60;;;;;;4307361;33;20169;-69
2021/04/22 07:47:20;;;;;;;11.30;2.70;;;7.60;85.20;;;;;;4307114;33;20221;-69
2021/04/22 07:49:54;;;;;;;10.77;2.63;;;7.80;81.90;;;;;;4307420;33;20149;-69
2021/04/22 07:52:21;;;;;;;7.67;2.37;;;7.70;81.30;;;;;;4306761;33;20191;-69
2021/04/22 07:54:47;;;;;;;10.67;2.20;;;7.70;77.90;;;;;;4306944;33;20183;-69
2021/04/22 07:57:14;;;;;;;10.33;2.40;;;7.70;75.70;;;;;;4307063;33;20271;-69
2021/04/22 07:59:40;;;;;;;6.70;2.20;;;7.50;74.90;;;;;;4307064;33;20193;-69
2021/04/22 08:02:11;;;;;;;10.83;2.23;;;7.60;75.50;;;;;;4307193;33;20151;-69
2021/04/22 08:04:38;;;;;;;7.10;2.20;;;7.50;75.30;;;;;;4305701;33;20188;-70
2021/04/22 08:07:05;;;;;;;9.60;2.30;;;7.40;75.00;;;;;;4305338;33;20165;-70
2021/04/22 08:09:33;;;;;;;9.03;2.73;;;7.40;75.00;;;;;;4306883;33;20192;-69
2021/04/22 08:12:01;;;;;;;7.77;2.27;;;7.60;77.60;;;;;;4318423;33;20149;-71
2021/04/22 08:14:28;;;;;;;9.03;3.00;;;7.70;75.60;;;;;;4319841;33;20170;-70
2021/04/22 08:16:54;;;;;;;10.50;2.53;;;7.80;76.20;;;;;;4320028;33;20209;-70
2021/04/22 08:19:21;;;;;;;11.37;2.43;;;8.30;75.40;;;;;;4321273;33;20161;-71
2021/04/22 08:21:47;;;;;;;11.97;2.50;;;9.00;74.50;;;;;;4319302;33;20441;-68
2021/04/22 08:24:13;;;;;;;10.00;2.73;;;9.60;70.50;;;;;;4321274;33;20187;-70
2021/04/22 08:26:40;;;;;;;7.83;2.30;;;9.80;69.00;;;;;;4319876;33;20153;-70
2021/04/22 08:29:06;;;;;;;9.40;2.60;;;9.70;69.00;;;;;;4321096;33;20200;-70
2021/04/22 08:31:34;;;;;;;9.27;2.50;;;9.70;66.80;;;;;;4319472;33;20183;-68
2021/04/22 08:34:03;;;;;;;8.67;2.20;;;9.50;67.90;;;;;;4319500;33;20180;-70
2021/04/22 08:36:30;;;;;;;12.93;2.43;;;9.50;65.00;;;;;;4319755;33;20180;-71
2021/04/22 08:38:56;;;;;;;6.23;2.40;;;9.50;62.20;;;;;;4320978;33;20168;-69
2021/04/22 08:41:23;;;;;;;8.97;2.40;;;9.80;63.40;;;;;;4320936;33;20165;-68
2021/04/22 08:43:50;;;;;;;9.17;2.13;;;9.80;62.70;;;;;;4320900;33;20410;-70
2021/04/22 08:46:17;;;;;;;6.87;2.10;;;9.90;61.00;;;;;;4320673;33;20157;-70
2021/04/22 08:48:44;;;;;;;7.73;2.30;;;10.20;58.80;;;;;;4320665;33;20492;-69
2021/04/22 08:51:12;;;;;;;8.17;2.13;;;10.40;58.70;;;;;;4320879;33;20161;-69
2021/04/22 08:53:45;;;;;;;13.53;2.47;;;9.90;59.00;;;;;;4320890;33;20200;-68
2021/04/22 08:56:13;;;;;;;7.17;2.30;;;9.80;60.40;;;;;;4319716;33;20158;-67
2021/04/22 08:58:41;;;;;;;10.80;2.30;;;9.90;58.20;;;;;;4328607;33;20420;-69
2021/04/22 09:01:11;;;;;;;8.30;2.30;;;9.90;58.50;;;;;;4319874;33;20141;-70
2021/04/22 09:03:40;;;;;;;7.00;2.20;;;10.00;58.10;;;;;;4335850;33;20196;-69
2021/04/22 09:06:08;;;;;;;10.33;2.33;;;9.70;57.60;;;;;;4323939;33;20191;-69
2021/04/22 09:08:38;;;;;;;8.33;2.40;;;9.90;59.20;;;;;;4322482;33;20578;-69
2021/04/22 09:11:06;;;;;;;7.27;2.43;;;9.80;59.30;;;;;;4323233;33;20223;-70
2021/04/22 09:13:34;;;;;;;9.23;2.60;;;9.70;58.60;;;;;;4322207;33;20168;-69
2021/04/22 09:16:04;;;;;;;7.27;2.10;;;9.80;58.10;;;;;;4323637;33;20161;-70
2021/04/22 09:18:41;;;;;;;8.83;2.40;;;10.20;56.80;;;;;;4323632;33;20195;-70
2021/04/22 09:21:26;;;;;;;9.73;2.40;;;10.30;56.20;;;;;;4323846;33;20184;-70
2021/04/22 09:24:16;;;;;;;7.37;2.03;;;10.60;55.90;;;;;;4322095;33;20168;-69
2021/04/22 09:26:51;;;;;;;6.73;2.40;;;10.40;55.20;;;;;;4321174;33;20233;-70
2021/04/22 09:29:29;;;;;;;5.83;2.20;;;10.60;55.10;;;;;;4322337;33;20204;-70
2021/04/22 09:32:14;;;;;;;6.93;2.20;;;10.90;53.60;;;;;;4323357;33;20157;-74
2021/04/22 09:34:53;;;;;;;9.67;2.33;;;11.30;53.00;;;;;;4323359;33;20433;-74
2021/04/22 09:37:23;;;;;;;8.03;2.57;;;11.80;52.90;;;;;;4323594;33;20399;-73
2021/04/22 09:39:51;;;;;;;10.00;2.60;;;11.70;53.50;;;;;;4323021;33;20363;-73
2021/04/22 09:42:19;;;;;;;8.90;2.57;;;11.80;54.10;;;;;;4321377;33;20571;-74
2021/04/22 09:44:49;;;;;;;7.87;2.80;;;11.80;53.40;;;;;;4320197;33;20164;-73
2021/04/22 09:47:20;;;;;;;12.47;2.80;;;12.30;53.20;;;;;;4318270;33;20263;-73
2021/04/22 09:49:53;;;;;;;11.43;2.60;;;12.30;52.40;;;;;;4320625;33;20256;-73
2021/04/22 09:52:20;;;;;;;9.63;2.60;;;12.80;53.70;;;;;;4323144;33;20199;-73
2021/04/22 09:54:54;;;;;;;9.10;2.80;;;12.20;52.20;;;;;;4321409;33;20161;-73
2021/04/22 09:57:22;;;;;;;7.47;2.40;;;11.80;51.80;;;;;;4322462;33;20193;-73
2021/04/22 09:59:49;;;;;;;12.83;2.63;;;12.10;53.00;;;;;;4321076;33;20507;-73
2021/04/22 10:02:16;;;;;;;9.47;2.73;;;12.40;52.60;;;;;;4320916;33;20136;-73
2021/04/22 10:04:45;;;;;;;8.53;2.70;;;12.30;53.00;;;;;;4320929;33;20153;-73
2021/04/22 10:07:30;;;;;;;8.93;2.30;;;12.30;53.60;;;;;;4321503;33;20145;-72
2021/04/22 10:09:58;;;;;;;11.07;2.60;;;12.90;52.00;;;;;;4323082;33;20194;-73
2021/04/22 10:12:34;;;;;;;8.60;2.70;;;13.00;50.90;;;;;;4321760;33;20216;-75
2021/04/22 10:15:09;;;;;;;6.73;2.40;;;12.90;50.50;;;;;;4321504;33;20141;-74
2021/04/22 10:17:36;;;;;;;11.73;2.83;;;12.40;51.10;;;;;;4322010;33;20501;-75
2021/04/22 10:20:11;;;;;;;6.70;2.33;;;12.50;50.70;;;;;;4321666;33;20169;-75
2021/04/22 10:22:39;;;;;;;8.83;2.70;;;12.50;52.00;;;;;;4321626;33;20148;-73
2021/04/22 10:25:12;;;;;;;13.53;3.03;;;12.70;52.30;;;;;;4323025;33;20204;-74
2021/04/22 10:27:39;;;;;;;8.20;2.47;;;13.00;51.90;;;;;;4321476;33;20185;-74
2021/04/22 10:30:25;;;;;;;11.60;2.70;;;13.40;50.90;;;;;;4321356;33;20166;-74
2021/04/22 10:32:52;;;;;;;8.07;2.27;;;12.30;51.90;;;;;;4321537;33;20524;-73
2021/04/22 10:35:21;;;;;;;6.93;2.23;;;12.50;52.80;;;;;;4321294;33;20198;-74
2021/04/22 10:37:50;;;;;;;8.23;2.27;;;12.80;50.80;;;;;;4322238;33;20555;-74
2021/04/22 10:40:20;;;;;;;9.33;2.50;;;13.10;52.60;;;;;;4322775;33;20144;-75
2021/04/22 10:42:47;;;;;;;7.03;2.40;;;14.00;50.10;;;;;;4322173;33;20447;-75
2021/04/22 10:45:18;;;;;;;8.93;2.63;;;14.70;47.90;;;;;;4321755;33;20153;-75
2021/04/22 10:47:45;;;;;;;8.27;2.50;;;14.50;47.10;;;;;;4322210;33;20138;-75
2021/04/22 10:50:15;;;;;;;5.13;2.10;;;14.30;47.50;;;;;;4320987;33;20481;-75
2021/04/22 10:52:47;;;;;;;8.10;2.35;;;14.60;46.30;;;;;;4320753;33;20048;-74
2021/04/22 10:55:21;;;;;;;8.97;2.50;;;13.90;46.90;;;;;;4327825;33;20166;-74
2021/04/22 10:57:52;;;;;;;7.07;2.20;;;13.20;48.00;;;;;;4322009;33;20147;-74
2021/04/22 11:00:22;;;;;;;7.30;2.60;;;13.10;49.90;;;;;;4320993;33;20442;-73
2021/04/22 11:02:51;;;;;;;7.43;2.17;;;12.50;50.80;;;;;;4321367;33;20182;-74
2021/04/22 11:05:28;;;;;;;10.33;2.87;;;12.50;52.10;;;;;;4321519;33;20212;-73
2021/04/22 11:08:07;;;;;;;7.33;2.27;;;12.40;51.80;;;;;;4320508;33;20488;-74
2021/04/22 11:10:42;;;;;;;10.13;2.43;;;12.40;52.30;;;;;;4320631;33;20502;-74
2021/04/22 11:13:13;;;;;;;8.63;2.87;;;12.80;51.80;;;;;;4320998;33;20257;-74
2021/04/22 11:16:02;;;;;;;7.27;2.43;;;12.30;51.20;;;;;;4322630;33;20220;-74
2021/04/22 11:18:44;;;;;;;6.57;2.07;;;12.00;52.80;;;;;;4321011;33;20212;-76
2021/04/22 11:21:26;;;;;;;8.40;2.10;;;12.70;51.20;;;;;;4321962;33;20145;-74
2021/04/22 11:23:54;;;;;;;6.43;2.27;;;13.50;48.90;;;;;;4319732;33;20427;-74
2021/04/22 11:26:27;;;;;;;6.03;2.43;;;13.80;47.90;;;;;;4320193;33;20197;-74
2021/04/22 11:28:55;;;;;;;7.10;2.00;;;13.60;49.40;;;;;;4322202;33;20376;-75
2021/04/22 11:31:25;;;;;;;9.57;2.93;;;14.60;49.30;;;;;;4320818;33;20162;-74
2021/04/22 11:34:04;;;;;;;9.47;2.57;;;13.90;48.50;;;;;;4324956;33;20186;-73
2021/04/22 11:36:31;;;;;;;5.50;2.00;;;14.50;47.50;;;;;;4325483;33;20219;-75
2021/04/22 11:39:02;;;;;;;5.70;2.27;;;15.30;46.80;;;;;;4320489;33;20220;-75
2021/04/22 11:41:31;;;;;;;8.33;2.30;;;15.10;45.50;;;;;;4321983;33;20213;-76
2021/04/22 11:44:04;;;;;;;8.27;2.10;;;15.40;46.60;;;;;;4321919;33;20145;-75
2021/04/22 11:46:48;;;;;;;7.05;2.50;;;15.50;44.40;;;;;;4320187;33;20036;-73
2021/04/22 11:49:32;;;;;;;9.93;2.80;;;15.10;45.50;;;;;;4320603;33;20149;-76
2021/04/22 11:51:59;;;;;;;7.60;2.30;;;15.20;45.70;;;;;;4320502;33;20153;-77
2021/04/22 11:54:32;;;;;;;7.83;2.60;;;15.90;46.50;;;;;;4319835;33;20157;-75
2021/04/22 11:57:05;;;;;;;8.03;2.60;;;15.80;45.30;;;;;;4321824;33;20191;-72
2021/04/22 11:59:34;;;;;;;6.17;2.33;;;16.50;44.50;;;;;;4321787;33;20161;-71
2021/04/22 12:02:04;;;;;;;8.80;2.57;;;16.60;42.80;;;;;;4320345;33;20154;-71
2021/04/22 12:04:38;;;;;;;5.70;2.20;;;17.50;42.10;;;;;;4319403;33;20191;-72
2021/04/22 12:07:07;;;;;;;5.60;2.43;;;17.90;40.70;;;;;;4320845;33;20472;-70
2021/04/22 12:09:34;;;;;;;7.97;2.50;;;17.70;40.10;;;;;;4321327;33;20176;-71
2021/04/22 12:12:11;;;;;;;5.87;2.47;;;17.80;41.20;;;;;;4321442;33;20154;-71
2021/04/22 12:14:37;;;;;;;8.77;2.20;;;17.30;41.70;;;;;;4320171;33;20514;-71
2021/04/22 12:17:04;;;;;;;5.40;1.97;;;16.60;43.10;;;;;;4320196;33;20227;-71
2021/04/22 12:19:31;;;;;;;7.13;2.10;;;16.10;42.50;;;;;;4321494;33;20235;-70
2021/04/22 12:22:03;;;;;;;5.47;2.20;;;16.00;41.80;;;;;;4320108;33;20411;-70
2021/04/22 12:24:30;;;;;;;5.33;2.13;;;15.50;42.90;;;;;;4320193;33;20191;-70
2021/04/22 12:26:57;;;;;;;8.07;2.27;;;14.30;45.00;;;;;;4320144;33;20432;-71
2021/04/22 12:29:23;;;;;;;7.37;2.60;;;13.90;47.30;;;;;;4321140;33;20192;-70
2021/04/22 12:32:03;;;;;;;7.67;2.20;;;13.80;48.10;;;;;;4321721;33;20142;-71
2021/04/22 12:34:32;;;;;;;6.03;2.20;;;14.60;48.60;;;;;;4321367;33;20157;-70
2021/04/22 12:37:03;;;;;;;5.63;2.63;;;14.90;46.10;;;;;;4319158;33;20209;-71
2021/04/22 12:39:40;;;;;;;8.33;2.80;;;14.70;45.80;;;;;;4321018;33;20212;-71
2021/04/22 12:42:22;;;;;;;9.53;2.20;;;14.30;46.50;;;;;;4326305;33;20519;-70
2021/04/22 12:45:01;;;;;;;4.83;1.90;;;14.80;45.40;;;;;;4319695;33;20188;-70
2021/04/22 12:47:43;;;;;;;5.50;2.20;;;14.50;45.10;;;;;;4319224;33;20164;-71
2021/04/22 12:50:27;;;;;;;4.60;1.83;;;14.60;45.10;;;;;;4321146;33;20179;-70
2021/04/22 12:53:11;;;;;;;8.47;1.87;;;14.00;45.20;;;;;;4319779;33;20161;-70
2021/04/22 12:55:45;;;;;;;5.30;1.93;;;13.70;46.50;;;;;;4320365;33;20503;-72